sensor_id;sensor_type;location;lat;lon;timestamp;pressure;altitude;pressure_sealevel;temperature;humidity
9740;BME280;4909;42.680;26.324;2024-02-26T00:00:12;98363.56;;;11.96;100.00
9740;BME280;4909;42.680;26.324;2024-02-26T00:02:40;98359.84;;;11.83;100.00
9740;BME280;4909;42.680;26.324;2024-02-26T00:05:07;98360.28;;;11.75;100.00
9740;BME280;4909;42.680;26.324;2024-02-26T00:07:34;98358.28;;;11.62;100.00
9740;BME280;4909;42.680;26.324;2024-02-26T00:10:02;98352.03;;;11.63;100.00
9740;BME280;4909;42.680;26.324;2024-02-26T00:12:29;98367.28;;;11.76;100.00
9740;BME280;4909;42.680;26.324;2024-02-26T00:14:56;98364.16;;;11.68;100.00
9740;BME280;4909;42.680;26.324;2024-02-26T00:17:23;98361.06;;;11.60;100.00
9740;BME280;4909;42.680;26.324;2024-02-26T00:19:52;98346.22;;;11.72;100.00
9740;BME280;4909;42.680;26.324;2024-02-26T00:22:19;98353.84;;;11.80;100.00
9740;BME280;4909;42.680;26.324;2024-02-26T00:24:47;98352.06;;;11.80;100.00
9740;BME280;4909;42.680;26.324;2024-02-26T00:27:14;98345.25;;;11.74;100.00
9740;BME280;4909;42.680;26.324;2024-02-26T00:29:41;98353.66;;;11.83;100.00
9740;BME280;4909;42.680;26.324;2024-02-26T00:32:08;98339.94;;;11.74;100.00
9740;BME280;4909;42.680;26.324;2024-02-26T00:34:35;98345.00;;;11.79;100.00
9740;BME280;4909;42.680;26.324;2024-02-26T00:37:03;98318.41;;;11.79;100.00
9740;BME280;4909;42.680;26.324;2024-02-26T00:39:31;98341.00;;;11.88;100.00
9740;BME280;4909;42.680;26.324;2024-02-26T00:41:58;98332.94;;;11.89;100.00
9740;BME280;4909;42.680;26.324;2024-02-26T00:44:25;98324.97;;;11.72;100.00
9740;BME280;4909;42.680;26.324;2024-02-26T00:46:52;98322.97;;;11.60;100.00
9740;BME280;4909;42.680;26.324;2024-02-26T00:49:19;98323.06;;;11.58;100.00
9740;BME280;4909;42.680;26.324;2024-02-26T00:51:46;98323.75;;;11.62;100.00
9740;BME280;4909;42.680;26.324;2024-02-26T00:54:14;98315.00;;;11.60;100.00
9740;BME280;4909;42.680;26.324;2024-02-26T00:56:41;98311.31;;;11.62;100.00
9740;BME280;4909;42.680;26.324;2024-02-26T00:59:08;98314.31;;;11.72;100.00
9740;BME280;4909;42.680;26.324;2024-02-26T01:01:35;98304.66;;;11.71;100.00
9740;BME280;4909;42.680;26.324;2024-02-26T01:04:02;98310.38;;;11.63;100.00
9740;BME280;4909;42.680;26.324;2024-02-26T01:06:29;98306.06;;;11.78;100.00
9740;BME280;4909;42.680;26.324;2024-02-26T01:08:56;98293.97;;;11.72;100.00
9740;BME280;4909;42.680;26.324;2024-02-26T01:11:25;98286.84;;;11.73;100.00
9740;BME280;4909;42.680;26.324;2024-02-26T01:13:52;98280.88;;;11.68;100.00
9740;BME280;4909;42.680;26.324;2024-02-26T01:16:22;98274.84;;;11.82;100.00
9740;BME280;4909;42.680;26.324;2024-02-26T01:18:49;98275.03;;;11.79;100.00
9740;BME280;4909;42.680;26.324;2024-02-26T01:21:16;98280.00;;;11.85;100.00
9740;BME280;4909;42.680;26.324;2024-02-26T01:23:43;98279.31;;;11.97;100.00
9740;BME280;4909;42.680;26.324;2024-02-26T01:26:10;98275.09;;;11.93;100.00
9740;BME280;4909;42.680;26.324;2024-02-26T01:28:38;98283.69;;;11.98;100.00
9740;BME280;4909;42.680;26.324;2024-02-26T01:31:05;98272.72;;;11.88;100.00
9740;BME280;4909;42.680;26.324;2024-02-26T01:33:34;98268.06;;;11.92;100.00
9740;BME280;4909;42.680;26.324;2024-02-26T01:36:01;98280.44;;;11.93;100.00
9740;BME280;4909;42.680;26.324;2024-02-26T01:38:28;98258.72;;;11.85;100.00
9740;BME280;4909;42.680;26.324;2024-02-26T01:40:55;98276.91;;;11.92;100.00
9740;BME280;4909;42.680;26.324;2024-02-26T01:43:22;98250.53;;;11.72;100.00
9740;BME280;4909;42.680;26.324;2024-02-26T01:45:50;98254.28;;;11.85;100.00
9740;BME280;4909;42.680;26.324;2024-02-26T01:48:17;98278.44;;;11.96;100.00
9740;BME280;4909;42.680;26.324;2024-02-26T01:50:44;98275.53;;;12.01;100.00
9740;BME280;4909;42.680;26.324;2024-02-26T01:53:12;98270.66;;;12.09;100.00
9740;BME280;4909;42.680;26.324;2024-02-26T01:55:40;98271.94;;;12.02;100.00
9740;BME280;4909;42.680;26.324;2024-02-26T01:58:07;98274.75;;;11.83;100.00
9740;BME280;4909;42.680;26.324;2024-02-26T02:00:34;98256.06;;;11.85;100.00
9740;BME280;4909;42.680;26.324;2024-02-26T02:03:04;98269.47;;;11.99;100.00
9740;BME280;4909;42.680;26.324;2024-02-26T02:05:31;98274.69;;;12.00;100.00
9740;BME280;4909;42.680;26.324;2024-02-26T02:07:59;98273.06;;;11.98;100.00
9740;BME280;4909;42.680;26.324;2024-02-26T02:10:29;98274.06;;;12.11;100.00
9740;BME280;4909;42.680;26.324;2024-02-26T02:12:56;98272.53;;;12.07;100.00
9740;BME280;4909;42.680;26.324;2024-02-26T02:15:23;98270.47;;;12.12;100.00
9740;BME280;4909;42.680;26.324;2024-02-26T02:17:50;98262.94;;;12.04;100.00
9740;BME280;4909;42.680;26.324;2024-02-26T02:20:18;98267.28;;;12.05;100.00
9740;BME280;4909;42.680;26.324;2024-02-26T02:22:47;98244.59;;;12.00;100.00
9740;BME280;4909;42.680;26.324;2024-02-26T02:25:14;98260.44;;;12.01;100.00
9740;BME280;4909;42.680;26.324;2024-02-26T02:27:42;98266.81;;;12.14;100.00
9740;BME280;4909;42.680;26.324;2024-02-26T02:30:11;98253.84;;;12.08;100.00
9740;BME280;4909;42.680;26.324;2024-02-26T02:32:40;98253.31;;;12.17;100.00
9740;BME280;4909;42.680;26.324;2024-02-26T02:35:07;98243.88;;;12.12;100.00
9740;BME280;4909;42.680;26.324;2024-02-26T02:37:34;98243.88;;;12.12;100.00
9740;BME280;4909;42.680;26.324;2024-02-26T02:40:05;98249.03;;;12.15;100.00
9740;BME280;4909;42.680;26.324;2024-02-26T02:42:32;98254.94;;;12.20;100.00
9740;BME280;4909;42.680;26.324;2024-02-26T02:44:59;98258.19;;;12.25;100.00
9740;BME280;4909;42.680;26.324;2024-02-26T02:47:26;98250.44;;;12.36;100.00
9740;BME280;4909;42.680;26.324;2024-02-26T02:49:53;98245.06;;;12.38;100.00
9740;BME280;4909;42.680;26.324;2024-02-26T02:52:20;98257.31;;;12.40;100.00
9740;BME280;4909;42.680;26.324;2024-02-26T02:54:47;98254.97;;;12.50;100.00
9740;BME280;4909;42.680;26.324;2024-02-26T02:57:15;98256.88;;;12.48;100.00
9740;BME280;4909;42.680;26.324;2024-02-26T02:59:42;98263.56;;;12.39;100.00
9740;BME280;4909;42.680;26.324;2024-02-26T03:02:09;98259.22;;;12.38;100.00
9740;BME280;4909;42.680;26.324;2024-02-26T03:04:36;98254.66;;;12.40;100.00
9740;BME280;4909;42.680;26.324;2024-02-26T03:07:03;98269.28;;;12.33;100.00
9740;BME280;4909;42.680;26.324;2024-02-26T03:09:30;98268.91;;;12.39;100.00
9740;BME280;4909;42.680;26.324;2024-02-26T03:11:57;98266.00;;;12.28;100.00
9740;BME280;4909;42.680;26.324;2024-02-26T03:14:26;98268.16;;;12.37;100.00
9740;BME280;4909;42.680;26.324;2024-02-26T03:16:53;98265.81;;;12.31;100.00
9740;BME280;4909;42.680;26.324;2024-02-26T03:19:20;98277.53;;;12.29;100.00
9740;BME280;4909;42.680;26.324;2024-02-26T03:21:47;98272.59;;;12.37;100.00
9740;BME280;4909;42.680;26.324;2024-02-26T03:24:14;98249.78;;;12.33;100.00
9740;BME280;4909;42.680;26.324;2024-02-26T03:26:41;98249.19;;;12.12;100.00
9740;BME280;4909;42.680;26.324;2024-02-26T03:29:08;98277.41;;;12.30;100.00
9740;BME280;4909;42.680;26.324;2024-02-26T03:31:37;98270.88;;;12.36;100.00
9740;BME280;4909;42.680;26.324;2024-02-26T03:34:04;98263.16;;;12.31;100.00
9740;BME280;4909;42.680;26.324;2024-02-26T03:36:31;98264.81;;;12.34;100.00
9740;BME280;4909;42.680;26.324;2024-02-26T03:38:58;98264.63;;;12.21;100.00
9740;BME280;4909;42.680;26.324;2024-02-26T03:41:25;98258.97;;;12.27;100.00
9740;BME280;4909;42.680;26.324;2024-02-26T03:43:52;98261.38;;;12.32;100.00
9740;BME280;4909;42.680;26.324;2024-02-26T03:46:19;98258.09;;;12.27;100.00
9740;BME280;4909;42.680;26.324;2024-02-26T03:48:47;98253.97;;;12.37;100.00
9740;BME280;4909;42.680;26.324;2024-02-26T03:51:14;98251.56;;;12.48;100.00
9740;BME280;4909;42.680;26.324;2024-02-26T03:53:41;98248.78;;;12.49;100.00
9740;BME280;4909;42.680;26.324;2024-02-26T03:56:08;98249.31;;;12.40;100.00
9740;BME280;4909;42.680;26.324;2024-02-26T03:58:37;98254.25;;;12.32;100.00
9740;BME280;4909;42.680;26.324;2024-02-26T04:01:07;98243.53;;;12.34;100.00
9740;BME280;4909;42.680;26.324;2024-02-26T04:03:34;98250.91;;;12.29;100.00
9740;BME280;4909;42.680;26.324;2024-02-26T04:06:02;98252.78;;;12.27;100.00
9740;BME280;4909;42.680;26.324;2024-02-26T04:08:29;98246.78;;;12.39;100.00
9740;BME280;4909;42.680;26.324;2024-02-26T04:10:56;98247.72;;;12.38;100.00
9740;BME280;4909;42.680;26.324;2024-02-26T04:13:23;98250.38;;;12.38;100.00
9740;BME280;4909;42.680;26.324;2024-02-26T04:15:51;98254.84;;;12.22;100.00
9740;BME280;4909;42.680;26.324;2024-02-26T04:18:17;98238.97;;;12.20;100.00
9740;BME280;4909;42.680;26.324;2024-02-26T04:20:44;98242.38;;;12.38;100.00
9740;BME280;4909;42.680;26.324;2024-02-26T04:23:13;98247.38;;;12.28;100.00
9740;BME280;4909;42.680;26.324;2024-02-26T04:25:40;98240.06;;;12.32;100.00
9740;BME280;4909;42.680;26.324;2024-02-26T04:28:07;98249.44;;;12.23;100.00
9740;BME280;4909;42.680;26.324;2024-02-26T04:30:34;98240.16;;;12.30;100.00
9740;BME280;4909;42.680;26.324;2024-02-26T04:33:01;98215.09;;;12.34;100.00
9740;BME280;4909;42.680;26.324;2024-02-26T04:35:28;98241.00;;;12.46;100.00
9740;BME280;4909;42.680;26.324;2024-02-26T04:37:55;98239.41;;;12.28;100.00
9740;BME280;4909;42.680;26.324;2024-02-26T04:40:23;98242.50;;;12.20;100.00
9740;BME280;4909;42.680;26.324;2024-02-26T04:42:50;98230.50;;;12.13;100.00
9740;BME280;4909;42.680;26.324;2024-02-26T04:45:17;98230.16;;;12.19;100.00
9740;BME280;4909;42.680;26.324;2024-02-26T04:47:44;98224.44;;;12.26;100.00
9740;BME280;4909;42.680;26.324;2024-02-26T04:50:11;98217.53;;;12.23;100.00
9740;BME280;4909;42.680;26.324;2024-02-26T04:52:38;98230.38;;;12.31;100.00
9740;BME280;4909;42.680;26.324;2024-02-26T04:55:05;98222.03;;;12.37;100.00
9740;BME280;4909;42.680;26.324;2024-02-26T04:57:34;98229.34;;;12.33;100.00
9740;BME280;4909;42.680;26.324;2024-02-26T05:00:01;98218.50;;;12.36;100.00
9740;BME280;4909;42.680;26.324;2024-02-26T05:02:29;98224.63;;;12.38;100.00
9740;BME280;4909;42.680;26.324;2024-02-26T05:04:57;98224.81;;;12.49;100.00
9740;BME280;4909;42.680;26.324;2024-02-26T05:07:24;98228.81;;;12.42;100.00
9740;BME280;4909;42.680;26.324;2024-02-26T05:09:52;98222.72;;;12.40;100.00
9740;BME280;4909;42.680;26.324;2024-02-26T05:12:19;98234.88;;;12.44;100.00
9740;BME280;4909;42.680;26.324;2024-02-26T05:14:47;98216.75;;;12.21;100.00
9740;BME280;4909;42.680;26.324;2024-02-26T05:17:14;98241.94;;;12.45;100.00
9740;BME280;4909;42.680;26.324;2024-02-26T05:19:41;98225.84;;;12.33;100.00
9740;BME280;4909;42.680;26.324;2024-02-26T05:22:08;98236.88;;;12.41;100.00
9740;BME280;4909;42.680;26.324;2024-02-26T05:24:37;98238.13;;;12.49;100.00
9740;BME280;4909;42.680;26.324;2024-02-26T05:27:04;98252.91;;;12.55;100.00
9740;BME280;4909;42.680;26.324;2024-02-26T05:29:31;98247.75;;;12.52;100.00
9740;BME280;4909;42.680;26.324;2024-02-26T05:31:59;98248.44;;;12.55;100.00
9740;BME280;4909;42.680;26.324;2024-02-26T05:34:26;98250.97;;;12.73;100.00
9740;BME280;4909;42.680;26.324;2024-02-26T05:36:55;98270.88;;;12.81;100.00
9740;BME280;4909;42.680;26.324;2024-02-26T05:39:22;98265.63;;;12.50;100.00
9740;BME280;4909;42.680;26.324;2024-02-26T05:41:49;98275.72;;;12.59;100.00
9740;BME280;4909;42.680;26.324;2024-02-26T05:44:16;98278.44;;;12.73;100.00
9740;BME280;4909;42.680;26.324;2024-02-26T05:46:43;98284.00;;;12.84;100.00
9740;BME280;4909;42.680;26.324;2024-02-26T05:49:12;98236.63;;;12.75;100.00
9740;BME280;4909;42.680;26.324;2024-02-26T05:51:38;98286.63;;;13.00;99.84
9740;BME280;4909;42.680;26.324;2024-02-26T05:54:05;98293.47;;;12.74;100.00
9740;BME280;4909;42.680;26.324;2024-02-26T05:56:33;98296.44;;;12.84;100.00
9740;BME280;4909;42.680;26.324;2024-02-26T05:59:00;98313.28;;;12.84;100.00
9740;BME280;4909;42.680;26.324;2024-02-26T06:01:27;98309.34;;;12.46;99.97
9740;BME280;4909;42.680;26.324;2024-02-26T06:03:54;98314.06;;;11.94;100.00
9740;BME280;4909;42.680;26.324;2024-02-26T06:06:23;98314.03;;;11.78;100.00
9740;BME280;4909;42.680;26.324;2024-02-26T06:08:50;98309.94;;;11.55;100.00
9740;BME280;4909;42.680;26.324;2024-02-26T06:11:17;98307.97;;;11.26;100.00
9740;BME280;4909;42.680;26.324;2024-02-26T06:13:44;98303.75;;;11.05;100.00
9740;BME280;4909;42.680;26.324;2024-02-26T06:16:11;98309.31;;;11.17;100.00
9740;BME280;4909;42.680;26.324;2024-02-26T06:18:38;98315.03;;;11.43;100.00
9740;BME280;4909;42.680;26.324;2024-02-26T06:21:09;98311.31;;;11.29;100.00
9740;BME280;4909;42.680;26.324;2024-02-26T06:23:37;98308.16;;;11.56;100.00
9740;BME280;4909;42.680;26.324;2024-02-26T06:26:05;98294.97;;;11.70;100.00
9740;BME280;4909;42.680;26.324;2024-02-26T06:28:31;98314.81;;;11.96;100.00
9740;BME280;4909;42.680;26.324;2024-02-26T06:31:01;98314.69;;;11.99;100.00
9740;BME280;4909;42.680;26.324;2024-02-26T06:33:28;98298.53;;;12.33;100.00
9740;BME280;4909;42.680;26.324;2024-02-26T06:35:55;98311.31;;;12.58;100.00
9740;BME280;4909;42.680;26.324;2024-02-26T06:38:22;98312.66;;;12.49;100.00
9740;BME280;4909;42.680;26.324;2024-02-26T06:40:50;98309.84;;;12.52;100.00
9740;BME280;4909;42.680;26.324;2024-02-26T06:43:17;98292.81;;;12.71;100.00
9740;BME280;4909;42.680;26.324;2024-02-26T06:45:44;98312.28;;;12.87;100.00
9740;BME280;4909;42.680;26.324;2024-02-26T06:48:11;98317.13;;;12.94;100.00
9740;BME280;4909;42.680;26.324;2024-02-26T06:50:38;98303.72;;;13.12;100.00
9740;BME280;4909;42.680;26.324;2024-02-26T06:53:07;98303.34;;;13.32;100.00
9740;BME280;4909;42.680;26.324;2024-02-26T06:55:33;98334.53;;;13.88;98.43
9740;BME280;4909;42.680;26.324;2024-02-26T06:58:02;98338.59;;;14.22;95.37
9740;BME280;4909;42.680;26.324;2024-02-26T07:00:29;98347.44;;;14.51;93.58
9740;BME280;4909;42.680;26.324;2024-02-26T07:02:56;98336.94;;;14.48;91.10
9740;BME280;4909;42.680;26.324;2024-02-26T07:05:23;98356.56;;;14.61;90.07
9740;BME280;4909;42.680;26.324;2024-02-26T07:07:50;98353.34;;;15.22;87.49
9740;BME280;4909;42.680;26.324;2024-02-26T07:10:18;98344.66;;;15.58;86.11
9740;BME280;4909;42.680;26.324;2024-02-26T07:12:44;98339.50;;;15.80;85.32
9740;BME280;4909;42.680;26.324;2024-02-26T07:15:13;98348.88;;;16.24;83.87
9740;BME280;4909;42.680;26.324;2024-02-26T07:17:40;98357.94;;;16.59;82.31
9740;BME280;4909;42.680;26.324;2024-02-26T07:20:12;98346.53;;;16.56;83.14
9740;BME280;4909;42.680;26.324;2024-02-26T07:22:39;98354.06;;;17.11;80.97
9740;BME280;4909;42.680;26.324;2024-02-26T07:25:08;98346.72;;;17.36;79.91
9740;BME280;4909;42.680;26.324;2024-02-26T07:27:38;98340.91;;;17.19;78.88
9740;BME280;4909;42.680;26.324;2024-02-26T07:30:06;98344.19;;;17.11;81.92
9740;BME280;4909;42.680;26.324;2024-02-26T07:32:35;98334.31;;;17.12;80.70
9740;BME280;4909;42.680;26.324;2024-02-26T07:35:01;98339.59;;;17.24;80.13
9740;BME280;4909;42.680;26.324;2024-02-26T07:37:28;98331.19;;;17.29;79.01
9740;BME280;4909;42.680;26.324;2024-02-26T07:39:55;98341.31;;;17.25;77.76
9740;BME280;4909;42.680;26.324;2024-02-26T07:42:22;98346.09;;;17.33;79.57
9740;BME280;4909;42.680;26.324;2024-02-26T07:44:49;98327.00;;;17.14;79.03
9740;BME280;4909;42.680;26.324;2024-02-26T07:47:16;98350.81;;;17.18;79.14
9740;BME280;4909;42.680;26.324;2024-02-26T07:49:44;98357.00;;;17.19;79.37
9740;BME280;4909;42.680;26.324;2024-02-26T07:52:11;98350.25;;;16.78;80.92
9740;BME280;4909;42.680;26.324;2024-02-26T07:54:38;98359.88;;;16.32;82.01
9740;BME280;4909;42.680;26.324;2024-02-26T07:57:05;98340.16;;;15.96;82.88
9740;BME280;4909;42.680;26.324;2024-02-26T07:59:32;98343.03;;;16.06;84.02
9740;BME280;4909;42.680;26.324;2024-02-26T08:01:59;98354.16;;;16.00;83.32
9740;BME280;4909;42.680;26.324;2024-02-26T08:04:28;98353.53;;;15.71;84.48
9740;BME280;4909;42.680;26.324;2024-02-26T08:06:57;98348.63;;;15.26;86.36
9740;BME280;4909;42.680;26.324;2024-02-26T08:09:24;98352.88;;;15.15;87.97
9740;BME280;4909;42.680;26.324;2024-02-26T08:11:51;98346.03;;;15.51;87.61
9740;BME280;4909;42.680;26.324;2024-02-26T08:14:18;98347.09;;;15.48;87.06
9740;BME280;4909;42.680;26.324;2024-02-26T08:16:45;98300.38;;;15.54;86.14
9740;BME280;4909;42.680;26.324;2024-02-26T08:19:11;98346.06;;;16.38;85.78
9740;BME280;4909;42.680;26.324;2024-02-26T08:21:40;98351.88;;;17.51;81.08
9740;BME280;4909;42.680;26.324;2024-02-26T08:24:09;98354.66;;;18.06;78.15
9740;BME280;4909;42.680;26.324;2024-02-26T08:26:36;98357.25;;;19.27;73.99
9740;BME280;4909;42.680;26.324;2024-02-26T08:29:03;98360.38;;;19.43;71.94
9740;BME280;4909;42.680;26.324;2024-02-26T08:31:30;98347.06;;;20.84;69.81
9740;BME280;4909;42.680;26.324;2024-02-26T08:33:57;98333.19;;;21.17;65.50
9740;BME280;4909;42.680;26.324;2024-02-26T08:36:24;98316.06;;;22.31;61.81
9740;BME280;4909;42.680;26.324;2024-02-26T08:38:51;98326.06;;;23.03;59.70
9740;BME280;4909;42.680;26.324;2024-02-26T08:41:20;98314.03;;;23.76;58.66
9740;BME280;4909;42.680;26.324;2024-02-26T08:43:47;98319.06;;;23.97;56.06
9740;BME280;4909;42.680;26.324;2024-02-26T08:46:14;98301.44;;;23.67;56.82
9740;BME280;4909;42.680;26.324;2024-02-26T08:48:41;98313.25;;;24.43;55.49
9740;BME280;4909;42.680;26.324;2024-02-26T08:51:08;98292.47;;;25.26;52.90
9740;BME280;4909;42.680;26.324;2024-02-26T08:53:35;98308.75;;;25.42;50.45
9740;BME280;4909;42.680;26.324;2024-02-26T08:56:04;98307.50;;;26.26;49.23
9740;BME280;4909;42.680;26.324;2024-02-26T08:58:32;98312.09;;;26.33;48.97
9740;BME280;4909;42.680;26.324;2024-02-26T09:00:59;98286.38;;;25.57;47.70
9740;BME280;4909;42.680;26.324;2024-02-26T09:03:26;98309.50;;;25.61;46.88
9740;BME280;4909;42.680;26.324;2024-02-26T09:05:53;98311.31;;;25.76;47.40
9740;BME280;4909;42.680;26.324;2024-02-26T09:08:20;98295.00;;;25.52;46.40
9740;BME280;4909;42.680;26.324;2024-02-26T09:10:47;98305.06;;;24.35;48.38
9740;BME280;4909;42.680;26.324;2024-02-26T09:13:14;98311.78;;;23.97;48.15
9740;BME280;4909;42.680;26.324;2024-02-26T09:15:43;98303.94;;;23.60;48.36
9740;BME280;4909;42.680;26.324;2024-02-26T09:18:10;98305.94;;;23.40;50.57
9740;BME280;4909;42.680;26.324;2024-02-26T09:20:37;98310.13;;;23.35;50.38
9740;BME280;4909;42.680;26.324;2024-02-26T09:23:04;98307.31;;;22.74;50.68
9740;BME280;4909;42.680;26.324;2024-02-26T09:25:31;98300.53;;;22.33;51.85
9740;BME280;4909;42.680;26.324;2024-02-26T09:27:59;98297.00;;;21.86;54.64
9740;BME280;4909;42.680;26.324;2024-02-26T09:30:26;98287.69;;;22.07;55.44
9740;BME280;4909;42.680;26.324;2024-02-26T09:32:54;98285.22;;;21.96;55.43
9740;BME280;4909;42.680;26.324;2024-02-26T09:35:21;98299.72;;;21.95;55.48
9740;BME280;4909;42.680;26.324;2024-02-26T09:37:48;98288.84;;;21.58;55.58
9740;BME280;4909;42.680;26.324;2024-02-26T09:40:15;98289.25;;;21.06;56.44
9740;BME280;4909;42.680;26.324;2024-02-26T09:42:43;98267.78;;;20.47;58.69
9740;BME280;4909;42.680;26.324;2024-02-26T09:45:17;98283.91;;;19.97;61.27
9740;BME280;4909;42.680;26.324;2024-02-26T09:47:44;98281.09;;;19.47;62.85
9740;BME280;4909;42.680;26.324;2024-02-26T09:50:14;98282.69;;;19.18;64.44
9740;BME280;4909;42.680;26.324;2024-02-26T09:52:43;98275.28;;;19.10;65.40
9740;BME280;4909;42.680;26.324;2024-02-26T09:55:10;98267.53;;;18.96;66.05
9740;BME280;4909;42.680;26.324;2024-02-26T09:57:37;98233.03;;;18.38;67.77
9740;BME280;4909;42.680;26.324;2024-02-26T10:00:09;98246.94;;;18.54;67.77
9740;BME280;4909;42.680;26.324;2024-02-26T10:02:39;98258.88;;;17.96;68.89
9740;BME280;4909;42.680;26.324;2024-02-26T10:05:07;98241.28;;;18.03;68.66
9740;BME280;4909;42.680;26.324;2024-02-26T10:07:38;98241.53;;;18.00;69.33
9740;BME280;4909;42.680;26.324;2024-02-26T10:10:05;98240.13;;;18.28;68.82
9740;BME280;4909;42.680;26.324;2024-02-26T10:12:33;98234.72;;;18.39;68.69
9740;BME280;4909;42.680;26.324;2024-02-26T10:15:00;98241.13;;;18.70;67.90
9740;BME280;4909;42.680;26.324;2024-02-26T10:17:27;98220.63;;;18.89;68.05
9740;BME280;4909;42.680;26.324;2024-02-26T10:19:54;98220.84;;;18.97;67.01
9740;BME280;4909;42.680;26.324;2024-02-26T10:22:22;98220.69;;;18.99;67.81
9740;BME280;4909;42.680;26.324;2024-02-26T10:24:50;98221.84;;;19.27;66.25
9740;BME280;4909;42.680;26.324;2024-02-26T10:27:18;98224.63;;;19.36;65.19
9740;BME280;4909;42.680;26.324;2024-02-26T10:29:46;98212.56;;;19.31;65.33
9740;BME280;4909;42.680;26.324;2024-02-26T10:32:13;98215.84;;;19.55;63.72
9740;BME280;4909;42.680;26.324;2024-02-26T10:34:40;98216.53;;;19.57;63.20
9740;BME280;4909;42.680;26.324;2024-02-26T10:37:07;98218.88;;;19.71;61.81
9740;BME280;4909;42.680;26.324;2024-02-26T10:39:36;98221.34;;;19.84;61.76
9740;BME280;4909;42.680;26.324;2024-02-26T10:42:05;98220.00;;;19.69;61.23
9740;BME280;4909;42.680;26.324;2024-02-26T10:44:40;98224.13;;;19.73;61.43
9740;BME280;4909;42.680;26.324;2024-02-26T10:47:09;98211.88;;;19.59;63.30
9740;BME280;4909;42.680;26.324;2024-02-26T10:49:36;98215.06;;;18.81;66.17
9740;BME280;4909;42.680;26.324;2024-02-26T10:52:04;98215.06;;;18.81;66.13
9740;BME280;4909;42.680;26.324;2024-02-26T10:54:33;98222.91;;;18.94;67.47
9740;BME280;4909;42.680;26.324;2024-02-26T10:57:02;98216.97;;;19.11;66.72
9740;BME280;4909;42.680;26.324;2024-02-26T10:59:33;98214.22;;;19.01;64.77
9740;BME280;4909;42.680;26.324;2024-02-26T11:02:02;98217.84;;;18.80;65.89
9740;BME280;4909;42.680;26.324;2024-02-26T11:04:30;98174.00;;;18.58;66.99
9740;BME280;4909;42.680;26.324;2024-02-26T11:06:57;98207.59;;;18.42;67.79
9740;BME280;4909;42.680;26.324;2024-02-26T11:09:27;98189.91;;;18.39;69.02
9740;BME280;4909;42.680;26.324;2024-02-26T11:11:54;98217.75;;;18.81;67.16
9740;BME280;4909;42.680;26.324;2024-02-26T11:14:23;98212.81;;;18.54;68.17
9740;BME280;4909;42.680;26.324;2024-02-26T11:16:54;98205.66;;;18.76;68.16
9740;BME280;4909;42.680;26.324;2024-02-26T11:19:22;98204.13;;;18.62;68.13
9740;BME280;4909;42.680;26.324;2024-02-26T11:21:51;98195.91;;;18.32;68.66
9740;BME280;4909;42.680;26.324;2024-02-26T11:24:18;98207.09;;;18.48;67.89
9740;BME280;4909;42.680;26.324;2024-02-26T11:26:49;98196.53;;;18.67;68.78
9740;BME280;4909;42.680;26.324;2024-02-26T11:29:26;98183.91;;;18.99;68.39
9740;BME280;4909;42.680;26.324;2024-02-26T11:31:55;98194.91;;;19.17;68.22
9740;BME280;4909;42.680;26.324;2024-02-26T11:34:22;98183.53;;;19.34;66.46
9740;BME280;4909;42.680;26.324;2024-02-26T11:36:51;98183.88;;;19.20;66.29
9740;BME280;4909;42.680;26.324;2024-02-26T11:39:19;98177.84;;;19.48;65.84
9740;BME280;4909;42.680;26.324;2024-02-26T11:41:46;98167.06;;;19.48;63.12
9740;BME280;4909;42.680;26.324;2024-02-26T11:44:13;98168.19;;;19.25;61.18
9740;BME280;4909;42.680;26.324;2024-02-26T11:46:42;98172.50;;;18.86;60.90
9740;BME280;4909;42.680;26.324;2024-02-26T11:49:33;98180.03;;;18.92;61.24
9740;BME280;4909;42.680;26.324;2024-02-26T11:52:05;98177.25;;;18.62;60.53
9740;BME280;4909;42.680;26.324;2024-02-26T11:54:48;98181.19;;;18.58;60.35
9740;BME280;4909;42.680;26.324;2024-02-26T11:57:23;98177.88;;;18.22;60.73
9740;BME280;4909;42.680;26.324;2024-02-26T11:59:51;98181.63;;;18.31;62.36
9740;BME280;4909;42.680;26.324;2024-02-26T12:02:44;98181.97;;;17.84;65.45
9740;BME280;4909;42.680;26.324;2024-02-26T12:05:15;98179.44;;;17.71;68.96
9740;BME280;4909;42.680;26.324;2024-02-26T12:07:44;98168.72;;;17.71;70.10
9740;BME280;4909;42.680;26.324;2024-02-26T12:10:17;98153.97;;;17.65;70.12
9740;BME280;4909;42.680;26.324;2024-02-26T12:12:47;98177.34;;;17.86;68.66
9740;BME280;4909;42.680;26.324;2024-02-26T12:15:15;98169.72;;;18.02;68.58
9740;BME280;4909;42.680;26.324;2024-02-26T12:17:48;98173.75;;;18.07;67.53
9740;BME280;4909;42.680;26.324;2024-02-26T12:20:17;98168.41;;;17.96;67.88
9740;BME280;4909;42.680;26.324;2024-02-26T12:22:45;98169.78;;;17.91;66.04
9740;BME280;4909;42.680;26.324;2024-02-26T12:25:13;98161.38;;;17.84;65.39
9740;BME280;4909;42.680;26.324;2024-02-26T12:27:40;98171.81;;;18.09;65.60
9740;BME280;4909;42.680;26.324;2024-02-26T12:30:09;98172.28;;;18.14;65.96
9740;BME280;4909;42.680;26.324;2024-02-26T12:32:36;98183.06;;;18.35;64.56
9740;BME280;4909;42.680;26.324;2024-02-26T12:35:05;98172.31;;;18.35;65.41
9740;BME280;4909;42.680;26.324;2024-02-26T12:37:34;98168.22;;;18.63;65.49
9740;BME280;4909;42.680;26.324;2024-02-26T12:40:04;98154.19;;;18.80;65.13
9740;BME280;4909;42.680;26.324;2024-02-26T12:42:33;98162.84;;;18.84;65.38
9740;BME280;4909;42.680;26.324;2024-02-26T12:45:05;98164.72;;;18.93;66.86
9740;BME280;4909;42.680;26.324;2024-02-26T12:47:35;98149.00;;;18.67;69.42
9740;BME280;4909;42.680;26.324;2024-02-26T12:50:03;98137.84;;;18.19;72.81
9740;BME280;4909;42.680;26.324;2024-02-26T12:52:31;98160.91;;;18.22;72.63
9740;BME280;4909;42.680;26.324;2024-02-26T12:55:00;98150.34;;;17.98;74.25
9740;BME280;4909;42.680;26.324;2024-02-26T12:57:27;98168.44;;;18.28;74.56
9740;BME280;4909;42.680;26.324;2024-02-26T12:59:56;98166.84;;;18.25;74.26
9740;BME280;4909;42.680;26.324;2024-02-26T13:02:23;98166.91;;;18.14;75.79
9740;BME280;4909;42.680;26.324;2024-02-26T13:04:50;98155.03;;;18.17;75.79
9740;BME280;4909;42.680;26.324;2024-02-26T13:07:18;98179.31;;;18.27;73.71